Time;durP1;ratioP1;P1;durP2;ratioP2;P2;SDS_P1;SDS_P2;PMS_P1;PMS_P2;Temp;Humidity;BMP_temperature;BMP_pressure;BME280_temperature;BME280_humidity;BME280_pressure;Samples;Min_cycle;Max_cycle;Signal;HPM_P1;HPM_P2
2023/06/14 00:00:40;;;;;;;;;;;;;;;;;;5028346;28;20285;-46
2023/06/14 05:10:25;;;;;;;;;;;;;;;;;;5021288;28;19921;-45
2023/06/14 05:12:52;;;;;;;;;;;;;;;;;;5027555;28;19921;-47
2023/06/14 05:15:18;;;;;;;;;;;;;;;;;;5027507;28;19913;-46
2023/06/14 05:17:44;;;;;;;;;;;;;;;;;;5027509;28;19948;-46
2023/06/14 05:20:10;;;;;;;;;;;;;;;;;;5027153;28;19964;-50
2023/06/14 05:22:36;;;;;;;;;;;;;;;;;;5027425;28;19998;-47
2023/06/14 05:25:03;;;;;;;;;;;;;;;;;;5013486;28;20250;-48
2023/06/14 05:27:30;;;;;;;;;;;;;;;;;;5008020;28;20145;-47
2023/06/14 05:29:58;;;;;;;;;;;;;;;;;;5007514;28;19964;-48
2023/06/14 05:32:24;;;;;;;;;;;;;;;;;;5009456;28;19921;-45
2023/06/14 05:34:50;;;;;;;;;;;;;;;;;;5026628;28;19968;-45
2023/06/14 05:37:17;;;;;;;;;;;;;;;;;;5025961;28;19959;-45
2023/06/14 05:39:43;;;;;;;;;;;;;;;;;;5028365;28;20024;-48
2023/06/14 05:42:09;;;;;;;;;;;;;;;;;;5042221;28;20016;-46
2023/06/14 05:44:35;;;;;;;;;;;;;;;;;;5030958;28;19909;-46
2023/06/14 05:47:01;;;;;;;;;;;;;;;;;;5028378;28;19913;-46
2023/06/14 05:49:28;;;;;;;;;;;;;;;;;;5027854;28;19917;-46
2023/06/14 05:51:54;;;;;;;;;;;;;;;;;;5028804;28;19909;-46
2023/06/14 05:54:20;;;;;;;;;;;;;;;;;;5028939;28;19935;-48
2023/06/14 05:56:46;;;;;;;;;;;;;;;;;;5028810;28;19916;-47
2023/06/14 05:59:12;;;;;;;;;;;;;;;;;;5028450;28;19992;-48
2023/06/14 06:01:40;;;;;;;;;;;;;;;;;;5027532;28;19932;-47
2023/06/14 06:04:06;;;;;;;;;;;;;;;;;;5028798;28;19916;-45
2023/06/14 06:06:32;;;;;;;;;;;;;;;;;;5028363;28;19913;-47
2023/06/14 06:08:58;;;;;;;;;;;;;;;;;;5027792;28;20568;-49
2023/06/14 06:11:24;;;;;;;;;;;;;;;;;;5027632;28;19924;-47
2023/06/14 06:13:50;;;;;;;;;;;;;;;;;;5028632;28;19932;-49
2023/06/14 06:16:16;;;;;;;;;;;;;;;;;;5028460;28;19914;-50
2023/06/14 06:18:42;;;;;;;;;;;;;;;;;;5029800;28;19998;-47
2023/06/14 06:21:08;;;;;;;;;;;;;;;;;;5031891;28;19917;-49
2023/06/14 06:23:35;;;;;;;;;;;;;;;;;;5031315;28;19914;-46
2023/06/14 06:26:01;;;;;;;;;;;;;;;;;;5032132;28;19909;-49
2023/06/14 06:28:27;;;;;;;;;;;;;;;;;;5031188;28;19924;-47
2023/06/14 06:30:53;;;;;;;;;;;;;;;;;;5027384;28;19971;-44
2023/06/14 06:33:19;;;;;;;;;;;;;;;;;;5031208;28;19917;-47
2023/06/14 06:35:45;;;;;;;;;;;;;;;;;;5031693;28;19983;-48
2023/06/14 06:38:11;;;;;;;;;;;;;;;;;;5027667;28;20396;-47
2023/06/14 06:40:37;;;;;;;;;;;;;;;;;;5030810;28;20020;-49
2023/06/14 06:43:03;;;;;;;;;;;;;;;;;;5031360;28;19917;-46
2023/06/14 06:45:29;;;;;;;;;;;;;;;;;;5031788;28;20253;-47
2023/06/14 06:47:55;;;;;;;;;;;;;;;;;;5031606;28;19913;-46
2023/06/14 06:50:23;;;;;;;;;;;;;;;;;;5031407;28;19916;-45
2023/06/14 06:52:48;;;;;;;;;;;;;;;;;;5028739;28;19917;-45
2023/06/14 06:55:14;;;;;;;;;;;;;;;;;;5031016;28;19913;-46
2023/06/14 06:57:40;;;;;;;;;;;;;;;;;;5048109;28;19932;-46
2023/06/14 07:00:09;;;;;;;;;;;;;;;;;;5042930;28;19966;-46
2023/06/14 07:02:36;;;;;;;;;;;;;;;;;;5031572;28;19913;-47
2023/06/14 07:05:02;;;;;;;;;;;;;;;;;;5029842;28;19913;-49
2023/06/14 07:07:28;;;;;;;;;;;;;;;;;;5032065;28;19913;-50
2023/06/14 07:09:54;;;;;;;;;;;;;;;;;;5031431;28;19983;-48
2023/06/14 07:12:19;;;;;;;;;;;;;;;;;;5030703;28;19921;-47
2023/06/14 07:14:46;;;;;;;;;;;;;;;;;;5030769;28;20494;-49
2023/06/14 07:17:12;;;;;;;;;;;;;;;;;;5012189;28;19913;-48
2023/06/14 07:19:37;;;;;;;;;;;;;;;;;;5029293;28;20015;-50
2023/06/14 07:22:03;;;;;;;;;;;;;;;;;;5029340;28;20012;-47
2023/06/14 07:24:29;;;;;;;;;;;;;;;;;;5024203;28;19921;-46
2023/06/14 07:26:56;;;;;;;;;;;;;;;;;;5012528;28;19956;-48
2023/06/14 07:29:22;;;;;;;;;;;;;;;;;;5028128;28;19923;-51
2023/06/14 07:31:47;;;;;;;;;;;;;;;;;;5011546;28;20477;-50
2023/06/14 07:34:13;;;;;;;;;;;;;;;;;;5029012;28;19948;-49
2023/06/14 07:36:39;;;;;;;;;;;;;;;;;;5028913;28;19917;-51
2023/06/14 07:39:06;;;;;;;;;;;;;;;;;;5027983;28;19967;-48
2023/06/14 07:41:32;;;;;;;;;;;;;;;;;;5027883;28;19909;-50
2023/06/14 07:43:58;;;;;;;;;;;;;;;;;;5028744;28;20375;-51
2023/06/14 07:46:25;;;;;;;;;;;;;;;;;;5028875;28;19932;-47
2023/06/14 07:48:51;;;;;;;;;;;;;;;;;;5029127;28;19913;-47
2023/06/14 07:51:17;;;;;;;;;;;;;;;;;;5029072;28;20031;-47
2023/06/14 07:53:43;;;;;;;;;;;;;;;;;;5027393;28;19917;-48
2023/06/14 07:56:10;;;;;;;;;;;;;;;;;;5028689;28;19952;-50
2023/06/14 07:58:36;;;;;;;;;;;;;;;;;;5027908;28;19944;-50
2023/06/14 08:01:06;;;;;;;;;;;;;;;;;;5028209;28;20367;-50
2023/06/14 08:03:32;;;;;;;;;;;;;;;;;;5016601;28;19940;-49
2023/06/14 08:17:37;;;;;;;;;;;;;;;;;;5105726;27;19916;-50
2023/06/14 08:20:04;;;;;;;;;;;;;;;;;;5105148;28;19920;-51
2023/06/14 08:22:33;;;;;;;;;;;;;;;;;;5104994;28;19922;-49
2023/06/14 08:24:59;;;;;;;;;;;;;;;;;;5106048;28;19920;-53
2023/06/14 08:27:25;;;;;;;;;;;;;;;;;;5105658;28;19908;-53
2023/06/14 08:29:51;;;;;;;;;;;;;;;;;;5106434;28;19991;-51
2023/06/14 08:32:17;;;;;;;;;;;;;;;;;;5104696;28;19912;-53
2023/06/14 08:34:43;;;;;;;;;;;;;;;;;;5106298;28;20340;-52
2023/06/14 08:37:09;;;;;;;;;;;;;;;;;;5106136;28;19916;-53
2023/06/14 08:39:35;;;;;;;;;;;;;;;;;;5106020;28;19908;-49
2023/06/14 08:42:01;;;;;;;;;;;;;;;;;;5105743;28;19939;-52
2023/06/14 08:44:27;;;;;;;;;;;;;;;;;;5106154;28;19916;-53
2023/06/14 08:46:53;;;;;;;;;;;;;;;;;;5105311;28;19962;-54
2023/06/14 08:49:19;;;;;;;;;;;;;;;;;;5105531;28;19942;-53
2023/06/14 08:51:47;;;;;;;;;;;;;;;;;;5105571;28;19908;-52
2023/06/14 08:54:13;;;;;;;;;;;;;;;;;;5105779;28;20502;-50
2023/06/14 08:56:41;;;;;;;;;;;;;;;;;;5105551;28;20006;-54
2023/06/14 08:59:08;;;;;;;;;;;;;;;;;;5105637;28;19942;-52
2023/06/14 09:01:34;;;;;;;;;;;;;;;;;;5105752;28;19972;-50
2023/06/14 09:04:01;;;;;;;;;;;;;;;;;;5104100;28;20368;-54
2023/06/14 09:06:28;;;;;;;;;;;;;;;;;;5105614;28;20063;-49
2023/06/14 09:08:55;;;;;;;;;;;;;;;;;;5104422;28;19957;-53
2023/06/14 09:11:21;;;;;;;;;;;;;;;;;;5105644;28;19935;-50
2023/06/14 09:13:47;;;;;;;;;;;;;;;;;;5104563;28;19954;-52
2023/06/14 09:16:13;;;;;;;;;;;;;;;;;;5103873;28;19920;-53
2023/06/14 09:18:39;;;;;;;;;;;;;;;;;;5090534;28;19916;-52
2023/06/14 09:21:05;;;;;;;;;;;;;;;;;;5091813;28;19916;-51
2023/06/14 09:23:32;;;;;;;;;;;;;;;;;;5090140;28;19915;-54
2023/06/14 09:25:58;;;;;;;;;;;;;;;;;;5091575;28;19958;-53
2023/06/14 09:28:24;;;;;;;;;;;;;;;;;;5089776;28;20323;-51
2023/06/14 09:30:50;;;;;;;;;;;;;;;;;;5091467;28;19978;-53
2023/06/14 09:33:16;;;;;;;;;;;;;;;;;;5091302;28;19908;-53
2023/06/14 09:35:42;;;;;;;;;;;;;;;;;;5090202;28;19912;-53
2023/06/14 09:38:08;;;;;;;;;;;;;;;;;;5091320;28;20007;-53
2023/06/14 09:40:33;;;;;;;;;;;;;;;;;;5088913;28;19908;-52
2023/06/14 09:43:00;;;;;;;;;;;;;;;;;;5091100;28;19939;-53
2023/06/14 09:45:29;;;;;;;;;;;;;;;;;;5090940;28;19913;-53
2023/06/14 09:47:55;;;;;;;;;;;;;;;;;;5091283;28;19916;-51
2023/06/14 09:50:21;;;;;;;;;;;;;;;;;;5091023;28;20354;-53
2023/06/14 09:52:47;;;;;;;;;;;;;;;;;;5090986;28;19951;-52
2023/06/14 09:55:13;;;;;;;;;;;;;;;;;;5090182;28;19947;-54
2023/06/14 09:57:39;;;;;;;;;;;;;;;;;;5090074;28;19920;-50
2023/06/14 10:00:10;;;;;;;;;;;;;;;;;;5090585;28;19908;-50
2023/06/14 10:02:37;;;;;;;;;;;;;;;;;;5090550;28;19915;-54
2023/06/14 10:05:06;;;;;;;;;;;;;;;;;;5089969;28;19951;-52
2023/06/14 10:07:32;;;;;;;;;;;;;;;;;;5090946;28;19912;-49
2023/06/14 10:09:58;;;;;;;;;;;;;;;;;;5090217;28;19919;-52
2023/06/14 10:12:24;;;;;;;;;;;;;;;;;;5090604;28;19916;-52
2023/06/14 10:14:50;;;;;;;;;;;;;;;;;;5090572;28;19919;-52
2023/06/14 10:17:16;;;;;;;;;;;;;;;;;;5090550;28;19920;-51
2023/06/14 10:19:42;;;;;;;;;;;;;;;;;;5089181;28;19957;-52
2023/06/14 10:22:08;;;;;;;;;;;;;;;;;;5087709;28;19998;-53
2023/06/14 10:24:34;;;;;;;;;;;;;;;;;;5089957;28;19916;-50
2023/06/14 10:27:00;;;;;;;;;;;;;;;;;;5087997;28;19926;-53
2023/06/14 10:29:26;;;;;;;;;;;;;;;;;;5085679;28;19919;-51
2023/06/14 10:31:52;;;;;;;;;;;;;;;;;;5087536;28;19912;-53
2023/06/14 10:34:18;;;;;;;;;;;;;;;;;;5086995;28;20315;-48
2023/06/14 10:36:44;;;;;;;;;;;;;;;;;;5088665;28;19941;-50
2023/06/14 10:39:10;;;;;;;;;;;;;;;;;;5088282;28;19920;-54
2023/06/14 10:41:36;;;;;;;;;;;;;;;;;;5089986;28;19912;-53
2023/06/14 10:44:02;;;;;;;;;;;;;;;;;;5090267;28;20061;-55
2023/06/14 10:46:28;;;;;;;;;;;;;;;;;;5089013;28;20072;-49
2023/06/14 10:48:54;;;;;;;;;;;;;;;;;;5089782;28;19916;-54
2023/06/14 10:51:20;;;;;;;;;;;;;;;;;;5090320;28;20002;-50
2023/06/14 10:53:47;;;;;;;;;;;;;;;;;;5090027;28;19908;-52
2023/06/14 10:56:13;;;;;;;;;;;;;;;;;;5088520;28;19912;-50
2023/06/14 10:58:38;;;;;;;;;;;;;;;;;;5089772;28;20448;-52
2023/06/14 11:01:04;;;;;;;;;;;;;;;;;;5089478;28;19934;-51
2023/06/14 11:03:30;;;;;;;;;;;;;;;;;;5089469;28;19963;-52
2023/06/14 11:05:56;;;;;;;;;;;;;;;;;;5089469;28;19916;-55
2023/06/14 11:08:22;;;;;;;;;;;;;;;;;;5087227;28;19935;-54
2023/06/14 11:10:48;;;;;;;;;;;;;;;;;;5088093;28;19919;-52
2023/06/14 11:13:14;;;;;;;;;;;;;;;;;;5087658;28;19908;-53
2023/06/14 11:15:40;;;;;;;;;;;;;;;;;;5088031;28;20002;-53
2023/06/14 11:18:06;;;;;;;;;;;;;;;;;;5087866;28;19995;-52
2023/06/14 11:20:32;;;;;;;;;;;;;;;;;;5087683;28;19912;-54
2023/06/14 11:22:58;;;;;;;;;;;;;;;;;;5087374;28;19912;-52
2023/06/14 11:25:24;;;;;;;;;;;;;;;;;;5087084;28;19916;-53
2023/06/14 11:27:50;;;;;;;;;;;;;;;;;;5087222;28;19916;-51
2023/06/14 11:30:16;;;;;;;;;;;;;;;;;;5087019;28;19961;-51
2023/06/14 11:32:42;;;;;;;;;;;;;;;;;;5085970;28;19912;-52
2023/06/14 11:35:09;;;;;;;;;;;;;;;;;;5087662;28;19912;-51
2023/06/14 11:37:36;;;;;;;;;;;;;;;;;;5086573;28;19961;-53
2023/06/14 11:40:08;;;;;;;;;;;;;;;;;;5086629;28;19920;-52
2023/06/14 11:42:34;;;;;;;;;;;;;;;;;;5087389;28;19908;-52
2023/06/14 11:45:01;;;;;;;;;;;;;;;;;;5088027;28;20505;-51
2023/06/14 11:47:27;;;;;;;;;;;;;;;;;;5086333;28;19912;-53
2023/06/14 11:49:53;;;;;;;;;;;;;;;;;;5087187;28;19919;-52
2023/06/14 11:52:19;;;;;;;;;;;;;;;;;;5085849;28;19978;-51
2023/06/14 11:54:44;;;;;;;;;;;;;;;;;;5086776;28;19913;-53
2023/06/14 11:57:11;;;;;;;;;;;;;;;;;;5085644;28;19916;-52
2023/06/14 11:59:37;;;;;;;;;;;;;;;;;;5086592;28;19912;-53
2023/06/14 12:02:03;;;;;;;;;;;;;;;;;;5085717;28;20299;-53
2023/06/14 12:04:29;;;;;;;;;;;;;;;;;;5087254;28;19958;-51
2023/06/14 12:06:57;;;;;;;;;;;;;;;;;;5084767;28;19927;-50
2023/06/14 12:09:24;;;;;;;;;;;;;;;;;;5085430;28;19961;-52
2023/06/14 12:11:50;;;;;;;;;;;;;;;;;;5085517;28;21420;-53
2023/06/14 12:14:16;;;;;;;;;;;;;;;;;;5086263;28;19955;-51
2023/06/14 12:16:42;;;;;;;;;;;;;;;;;;5087062;28;19920;-49
2023/06/14 12:19:09;;;;;;;;;;;;;;;;;;5086585;28;19912;-49
2023/06/14 12:21:35;;;;;;;;;;;;;;;;;;5086496;28;20353;-51
2023/06/14 12:24:01;;;;;;;;;;;;;;;;;;5085606;28;19912;-49
2023/06/14 12:26:27;;;;;;;;;;;;;;;;;;5086664;28;19974;-52
2023/06/14 12:28:53;;;;;;;;;;;;;;;;;;5086040;28;19950;-54
2023/06/14 12:31:19;;;;;;;;;;;;;;;;;;5085442;28;19916;-49
2023/06/14 12:33:48;;;;;;;;;;;;;;;;;;5086490;28;20458;-48
2023/06/14 12:36:15;;;;;;;;;;;;;;;;;;5086744;28;19927;-50
2023/06/14 12:38:41;;;;;;;;;;;;;;;;;;5085615;28;19915;-51
2023/06/14 12:41:07;;;;;;;;;;;;;;;;;;5086667;28;19920;-49
2023/06/14 12:43:33;;;;;;;;;;;;;;;;;;5086257;28;20460;-49
2023/06/14 12:45:59;;;;;;;;;;;;;;;;;;5087312;28;20065;-49
2023/06/14 12:48:27;;;;;;;;;;;;;;;;;;5086863;28;19909;-49
2023/06/14 12:50:54;;;;;;;;;;;;;;;;;;5086316;28;19908;-48
2023/06/14 12:53:20;;;;;;;;;;;;;;;;;;5086614;28;19916;-49
2023/06/14 12:55:46;;;;;;;;;;;;;;;;;;5088131;28;19923;-48
2023/06/14 12:58:13;;;;;;;;;;;;;;;;;;5088225;28;20003;-51
2023/06/14 13:00:39;;;;;;;;;;;;;;;;;;5088194;28;19916;-48
2023/06/14 13:03:05;;;;;;;;;;;;;;;;;;5089948;28;19931;-49
2023/06/14 13:05:33;;;;;;;;;;;;;;;;;;5090646;28;20007;-51
2023/06/14 13:07:59;;;;;;;;;;;;;;;;;;5095754;28;19912;-50
2023/06/14 13:10:25;;;;;;;;;;;;;;;;;;5086981;28;19927;-49
2023/06/14 13:12:51;;;;;;;;;;;;;;;;;;5089626;28;19916;-48
2023/06/14 13:15:16;;;;;;;;;;;;;;;;;;5089586;28;19955;-49
2023/06/14 13:17:48;;;;;;;;;;;;;;;;;;5090815;28;19973;-49
2023/06/14 13:20:14;;;;;;;;;;;;;;;;;;5089940;28;19947;-49
2023/06/14 13:22:40;;;;;;;;;;;;;;;;;;5090230;28;19959;-47
2023/06/14 13:25:06;;;;;;;;;;;;;;;;;;5089426;28;20177;-52
2023/06/14 13:27:32;;;;;;;;;;;;;;;;;;5089259;28;19934;-48
2023/06/14 13:29:57;;;;;;;;;;;;;;;;;;5089038;28;19912;-50
2023/06/14 13:32:23;;;;;;;;;;;;;;;;;;5089449;28;19943;-45
2023/06/14 13:34:49;;;;;;;;;;;;;;;;;;5086709;28;19919;-49
2023/06/14 13:37:16;;;;;;;;;;;;;;;;;;5089296;28;19916;-48
2023/06/14 13:39:42;;;;;;;;;;;;;;;;;;5088177;28;20372;-49
2023/06/14 13:42:07;;;;;;;;;;;;;;;;;;5088978;28;20003;-50
2023/06/14 13:44:33;;;;;;;;;;;;;;;;;;5088817;28;19914;-49
2023/06/14 13:46:59;;;;;;;;;;;;;;;;;;5089058;28;20019;-49
2023/06/14 13:49:25;;;;;;;;;;;;;;;;;;5087301;28;19923;-49
2023/06/14 13:51:51;;;;;;;;;;;;;;;;;;5088688;28;19943;-51
2023/06/14 13:54:18;;;;;;;;;;;;;;;;;;5088351;28;19908;-49
2023/06/14 13:56:44;;;;;;;;;;;;;;;;;;5089051;28;19946;-49
2023/06/14 13:59:10;;;;;;;;;;;;;;;;;;5087352;28;19924;-49
2023/06/14 14:01:36;;;;;;;;;;;;;;;;;;5086588;28;19955;-53
2023/06/14 14:04:02;;;;;;;;;;;;;;;;;;5087915;28;19985;-49
2023/06/14 14:06:28;;;;;;;;;;;;;;;;;;5088223;28;19912;-49
2023/06/14 14:08:54;;;;;;;;;;;;;;;;;;5086846;28;19908;-50
2023/06/14 14:11:20;;;;;;;;;;;;;;;;;;5091550;28;19916;-52
2023/06/14 14:13:46;;;;;;;;;;;;;;;;;;5087542;28;19912;-52
2023/06/14 14:16:12;;;;;;;;;;;;;;;;;;5086962;28;19938;-49
2023/06/14 14:18:38;;;;;;;;;;;;;;;;;;5087544;28;19916;-47
2023/06/14 14:21:04;;;;;;;;;;;;;;;;;;5087451;28;20431;-51
2023/06/14 14:23:30;;;;;;;;;;;;;;;;;;5086917;28;19999;-52
2023/06/14 14:25:56;;;;;;;;;;;;;;;;;;5086912;28;19927;-49
2023/06/14 14:28:22;;;;;;;;;;;;;;;;;;5086654;28;19998;-50
2023/06/14 14:30:49;;;;;;;;;;;;;;;;;;5087676;28;19908;-53
2023/06/14 14:33:18;;;;;;;;;;;;;;;;;;5088390;28;20613;-49
2023/06/14 14:35:45;;;;;;;;;;;;;;;;;;5088060;28;19908;-49
2023/06/14 14:38:11;;;;;;;;;;;;;;;;;;5087088;28;19920;-52
2023/06/14 14:40:37;;;;;;;;;;;;;;;;;;5086864;28;19923;-52
2023/06/14 14:43:03;;;;;;;;;;;;;;;;;;5087732;28;20276;-47
2023/06/14 14:45:29;;;;;;;;;;;;;;;;;;5087660;28;19920;-50
2023/06/14 14:47:55;;;;;;;;;;;;;;;;;;5087644;28;19908;-48
2023/06/14 14:50:21;;;;;;;;;;;;;;;;;;5087515;28;20307;-48
2023/06/14 14:52:47;;;;;;;;;;;;;;;;;;5087100;28;19912;-51
2023/06/14 14:55:13;;;;;;;;;;;;;;;;;;5086909;28;19950;-49
2023/06/14 14:57:40;;;;;;;;;;;;;;;;;;5085814;28;19952;-48
2023/06/14 15:00:05;;;;;;;;;;;;;;;;;;5086082;28;19954;-48
2023/06/14 15:02:32;;;;;;;;;;;;;;;;;;5087066;28;19916;-49
2023/06/14 15:05:00;;;;;;;;;;;;;;;;;;5086805;28;20315;-50
2023/06/14 15:07:26;;;;;;;;;;;;;;;;;;5086780;28;19920;-49
2023/06/14 15:09:52;;;;;;;;;;;;;;;;;;5085184;28;19926;-47
2023/06/14 15:12:20;;;;;;;;;;;;;;;;;;5087197;28;19908;-48
2023/06/14 15:14:45;;;;;;;;;;;;;;;;;;5085444;28;19962;-50
2023/06/14 15:17:11;;;;;;;;;;;;;;;;;;5087009;28;19919;-48
2023/06/14 15:19:37;;;;;;;;;;;;;;;;;;5086541;28;19958;-50
2023/06/14 15:22:03;;;;;;;;;;;;;;;;;;5085675;28;19935;-49
2023/06/14 15:24:30;;;;;;;;;;;;;;;;;;5085418;28;19912;-48
2023/06/14 15:26:56;;;;;;;;;;;;;;;;;;5087397;28;19912;-49
2023/06/14 15:29:22;;;;;;;;;;;;;;;;;;5084798;28;19939;-53
2023/06/14 15:31:48;;;;;;;;;;;;;;;;;;5086642;28;19908;-47
2023/06/14 15:34:15;;;;;;;;;;;;;;;;;;5086212;28;19963;-51
2023/06/14 15:36:41;;;;;;;;;;;;;;;;;;5083567;28;19912;-47
2023/06/14 15:39:07;;;;;;;;;;;;;;;;;;5086464;28;19919;-47
2023/06/14 15:41:33;;;;;;;;;;;;;;;;;;5086372;28;19995;-50
2023/06/14 15:43:58;;;;;;;;;;;;;;;;;;5087353;28;19912;-52
2023/06/14 15:46:24;;;;;;;;;;;;;;;;;;5087231;28;19935;-49
2023/06/14 15:48:50;;;;;;;;;;;;;;;;;;5085737;28;19912;-51
2023/06/14 15:51:17;;;;;;;;;;;;;;;;;;5083716;28;20072;-50
2023/06/14 15:53:43;;;;;;;;;;;;;;;;;;5085691;28;19912;-50
2023/06/14 15:56:09;;;;;;;;;;;;;;;;;;5086645;28;19919;-49
2023/06/14 15:58:35;;;;;;;;;;;;;;;;;;5085561;28;19912;-50
2023/06/14 16:01:01;;;;;;;;;;;;;;;;;;5084479;28;19919;-52
2023/06/14 16:03:27;;;;;;;;;;;;;;;;;;5086792;28;19920;-50
2023/06/14 16:05:53;;;;;;;;;;;;;;;;;;5086096;28;19918;-48
2023/06/14 16:08:19;;;;;;;;;;;;;;;;;;5085475;28;20404;-48
2023/06/14 16:10:45;;;;;;;;;;;;;;;;;;5084074;28;20481;-52
2023/06/14 16:13:11;;;;;;;;;;;;;;;;;;5086393;28;19912;-50
2023/06/14 16:15:37;;;;;;;;;;;;;;;;;;5086075;28;19993;-52
2023/06/14 16:18:03;;;;;;;;;;;;;;;;;;5086103;28;19909;-50
2023/06/14 16:20:30;;;;;;;;;;;;;;;;;;5084060;28;20403;-49
2023/06/14 16:22:56;;;;;;;;;;;;;;;;;;5085570;28;19950;-50
2023/06/14 16:25:22;;;;;;;;;;;;;;;;;;5085678;28;20657;-50
2023/06/14 16:27:48;;;;;;;;;;;;;;;;;;5086382;28;19912;-52
2023/06/14 16:30:14;;;;;;;;;;;;;;;;;;5089891;28;19995;-53
2023/06/14 16:32:40;;;;;;;;;;;;;;;;;;5089589;28;19947;-51
2023/06/14 16:35:06;;;;;;;;;;;;;;;;;;5089872;28;20384;-50
2023/06/14 16:37:32;;;;;;;;;;;;;;;;;;5089919;28;19958;-48
2023/06/14 16:39:58;;;;;;;;;;;;;;;;;;5090725;28;19931;-48
2023/06/14 16:42:24;;;;;;;;;;;;;;;;;;5090508;28;19912;-49
2023/06/14 16:44:50;;;;;;;;;;;;;;;;;;5087400;28;19916;-49
2023/06/14 16:47:16;;;;;;;;;;;;;;;;;;5089854;28;19912;-50
2023/06/14 16:49:42;;;;;;;;;;;;;;;;;;5088955;28;19919;-48
2023/06/14 16:52:08;;;;;;;;;;;;;;;;;;5087103;28;19970;-51
2023/06/14 16:54:34;;;;;;;;;;;;;;;;;;5087112;28;19949;-52
2023/06/14 16:57:00;;;;;;;;;;;;;;;;;;5089846;28;19908;-50
2023/06/14 16:59:26;;;;;;;;;;;;;;;;;;5089013;28;19934;-51
2023/06/14 17:01:52;;;;;;;;;;;;;;;;;;5089462;28;19942;-49
2023/06/14 17:04:19;;;;;;;;;;;;;;;;;;5085431;28;20384;-49
2023/06/14 17:06:46;;;;;;;;;;;;;;;;;;5072323;28;19916;-49
2023/06/14 17:09:13;;;;;;;;;;;;;;;;;;5072554;28;19947;-48
2023/06/14 17:11:39;;;;;;;;;;;;;;;;;;5086308;28;20403;-50
2023/06/14 17:14:06;;;;;;;;;;;;;;;;;;5082420;28;20006;-49
2023/06/14 17:16:32;;;;;;;;;;;;;;;;;;5081592;28;20335;-48
2023/06/14 17:18:59;;;;;;;;;;;;;;;;;;5083041;28;20197;-47
2023/06/14 17:21:25;;;;;;;;;;;;;;;;;;5081789;28;20414;-49
2023/06/14 17:23:51;;;;;;;;;;;;;;;;;;5083978;28;19916;-47
2023/06/14 17:26:17;;;;;;;;;;;;;;;;;;5086410;28;19969;-48
2023/06/14 17:28:43;;;;;;;;;;;;;;;;;;5085521;28;19920;-47
2023/06/14 17:31:08;;;;;;;;;;;;;;;;;;5085603;28;19920;-48
2023/06/14 17:33:36;;;;;;;;;;;;;;;;;;5084833;28;19912;-48
2023/06/14 17:36:03;;;;;;;;;;;;;;;;;;5086183;28;20052;-49
2023/06/14 17:38:30;;;;;;;;;;;;;;;;;;5086796;28;20060;-51
2023/06/14 17:40:58;;;;;;;;;;;;;;;;;;5085445;28;19939;-46
2023/06/14 17:43:24;;;;;;;;;;;;;;;;;;5087476;28;19931;-48
2023/06/14 17:45:50;;;;;;;;;;;;;;;;;;5086744;28;20387;-49
2023/06/14 17:48:17;;;;;;;;;;;;;;;;;;5086865;28;19961;-48
2023/06/14 17:50:42;;;;;;;;;;;;;;;;;;5086426;28;19926;-49
2023/06/14 17:53:08;;;;;;;;;;;;;;;;;;5083325;28;19919;-47
2023/06/14 17:55:34;;;;;;;;;;;;;;;;;;5078592;28;20392;-48
2023/06/14 17:58:00;;;;;;;;;;;;;;;;;;5081793;28;20371;-49
2023/06/14 18:00:26;;;;;;;;;;;;;;;;;;5082958;28;19916;-50
2023/06/14 18:02:52;;;;;;;;;;;;;;;;;;5078527;28;20529;-49
2023/06/14 18:05:19;;;;;;;;;;;;;;;;;;5081500;28;19916;-48
2023/06/14 18:07:45;;;;;;;;;;;;;;;;;;5080580;28;19916;-51
2023/06/14 18:10:14;;;;;;;;;;;;;;;;;;5082048;28;19912;-48
2023/06/14 18:12:41;;;;;;;;;;;;;;;;;;5079316;28;20017;-48
2023/06/14 18:15:06;;;;;;;;;;;;;;;;;;5081708;28;20552;-48
2023/06/14 18:17:32;;;;;;;;;;;;;;;;;;5083391;28;20230;-49
2023/06/14 18:20:00;;;;;;;;;;;;;;;;;;5083693;28;19920;-48
2023/06/14 18:22:27;;;;;;;;;;;;;;;;;;5076857;28;19947;-48
2023/06/14 18:24:53;;;;;;;;;;;;;;;;;;5076782;28;19916;-51
2023/06/14 18:27:19;;;;;;;;;;;;;;;;;;5078224;28;19960;-48
2023/06/14 18:29:47;;;;;;;;;;;;;;;;;;5086247;28;19960;-51
2023/06/14 18:32:13;;;;;;;;;;;;;;;;;;5086822;28;19916;-49
2023/06/14 18:34:39;;;;;;;;;;;;;;;;;;5081342;28;20484;-50
2023/06/14 18:37:05;;;;;;;;;;;;;;;;;;5084105;28;19916;-52
2023/06/14 18:39:31;;;;;;;;;;;;;;;;;;5081707;28;20273;-50
2023/06/14 18:41:57;;;;;;;;;;;;;;;;;;5084547;28;19918;-49
2023/06/14 18:44:22;;;;;;;;;;;;;;;;;;5085087;28;19912;-49
2023/06/14 18:46:49;;;;;;;;;;;;;;;;;;5084202;28;19926;-50
2023/06/14 18:49:15;;;;;;;;;;;;;;;;;;5083377;28;19943;-49
2023/06/14 18:51:41;;;;;;;;;;;;;;;;;;5083782;28;20396;-47
2023/06/14 18:54:07;;;;;;;;;;;;;;;;;;5080620;28;20331;-52
2023/06/14 18:56:34;;;;;;;;;;;;;;;;;;5083397;28;19931;-47
2023/06/14 18:59:03;;;;;;;;;;;;;;;;;;5082925;28;19916;-47
2023/06/14 19:01:30;;;;;;;;;;;;;;;;;;5084570;28;19920;-51
2023/06/14 19:03:56;;;;;;;;;;;;;;;;;;5083869;28;19919;-49
2023/06/14 19:06:24;;;;;;;;;;;;;;;;;;5081821;28;19916;-47
2023/06/14 19:08:51;;;;;;;;;;;;;;;;;;5084729;28;20238;-48
2023/06/14 19:11:17;;;;;;;;;;;;;;;;;;5080965;28;19928;-47
2023/06/14 19:13:43;;;;;;;;;;;;;;;;;;5081071;28;20376;-48
2023/06/14 19:16:09;;;;;;;;;;;;;;;;;;5080164;28;19931;-49
2023/06/14 19:18:36;;;;;;;;;;;;;;;;;;5081175;28;19912;-48
2023/06/14 19:21:03;;;;;;;;;;;;;;;;;;5082898;28;19961;-52
2023/06/14 19:23:29;;;;;;;;;;;;;;;;;;5079730;28;19927;-51
2023/06/14 19:25:55;;;;;;;;;;;;;;;;;;5080224;28;19920;-49
2023/06/14 19:28:22;;;;;;;;;;;;;;;;;;5083262;28;20424;-50
2023/06/14 19:30:49;;;;;;;;;;;;;;;;;;5081702;28;19913;-48
2023/06/14 19:33:16;;;;;;;;;;;;;;;;;;5078819;28;20004;-51
2023/06/14 19:35:43;;;;;;;;;;;;;;;;;;5074428;28;19958;-50
2023/06/14 19:38:12;;;;;;;;;;;;;;;;;;5079011;28;19920;-47
2023/06/14 19:40:38;;;;;;;;;;;;;;;;;;5079643;28;20445;-48
2023/06/14 19:43:04;;;;;;;;;;;;;;;;;;5082318;28;20269;-49
2023/06/14 19:45:31;;;;;;;;;;;;;;;;;;5082989;28;19927;-48
2023/06/14 19:47:57;;;;;;;;;;;;;;;;;;5082265;28;19916;-49
2023/06/14 19:50:23;;;;;;;;;;;;;;;;;;5078624;28;19920;-49
2023/06/14 19:52:50;;;;;;;;;;;;;;;;;;5076771;28;20014;-48
2023/06/14 19:55:17;;;;;;;;;;;;;;;;;;5077897;28;20177;-49
2023/06/14 19:57:44;;;;;;;;;;;;;;;;;;5079651;28;19912;-47
2023/06/14 20:00:12;;;;;;;;;;;;;;;;;;5081102;28;20296;-48
2023/06/14 20:02:38;;;;;;;;;;;;;;;;;;5078693;28;19912;-49
2023/06/14 20:05:04;;;;;;;;;;;;;;;;;;5082790;28;20419;-50
2023/06/14 20:07:31;;;;;;;;;;;;;;;;;;5080211;28;19924;-49
2023/06/14 20:09:58;;;;;;;;;;;;;;;;;;5079468;28;19918;-50
2023/06/14 20:12:24;;;;;;;;;;;;;;;;;;5080889;28;20288;-50
2023/06/14 20:14:50;;;;;;;;;;;;;;;;;;5083321;28;20006;-48
2023/06/14 20:17:15;;;;;;;;;;;;;;;;;;5083058;28;19916;-47
2023/06/14 20:19:42;;;;;;;;;;;;;;;;;;5094198;28;19908;-51
2023/06/14 20:22:09;;;;;;;;;;;;;;;;;;5080571;28;20195;-48
2023/06/14 20:24:37;;;;;;;;;;;;;;;;;;5078879;28;19959;-49
2023/06/14 20:27:03;;;;;;;;;;;;;;;;;;5073652;28;19916;-48
2023/06/14 20:29:30;;;;;;;;;;;;;;;;;;5081672;28;19920;-50
2023/06/14 20:31:56;;;;;;;;;;;;;;;;;;5083039;28;19912;-50
2023/06/14 20:34:22;;;;;;;;;;;;;;;;;;5077287;28;20435;-49
2023/06/14 20:36:47;;;;;;;;;;;;;;;;;;5080867;28;20442;-50
2023/06/14 20:39:13;;;;;;;;;;;;;;;;;;5079746;28;19912;-50
2023/06/14 20:41:39;;;;;;;;;;;;;;;;;;5080701;28;20028;-52
2023/06/14 20:44:05;;;;;;;;;;;;;;;;;;5082792;28;19947;-48
2023/06/14 20:46:32;;;;;;;;;;;;;;;;;;5081594;28;19919;-48
2023/06/14 20:48:58;;;;;;;;;;;;;;;;;;5084702;28;19908;-49
2023/06/14 20:51:25;;;;;;;;;;;;;;;;;;5081486;28;19916;-47
2023/06/14 20:53:52;;;;;;;;;;;;;;;;;;5079854;28;20325;-48
2023/06/14 20:56:20;;;;;;;;;;;;;;;;;;5084072;28;19958;-50
2023/06/14 20:58:46;;;;;;;;;;;;;;;;;;5083039;28;20376;-49
2023/06/14 21:01:13;;;;;;;;;;;;;;;;;;5079563;28;19943;-48
2023/06/14 21:03:38;;;;;;;;;;;;;;;;;;5083502;28;19916;-47
2023/06/14 21:06:05;;;;;;;;;;;;;;;;;;5080651;28;19974;-51
2023/06/14 21:08:31;;;;;;;;;;;;;;;;;;5079179;28;19960;-48
2023/06/14 21:10:58;;;;;;;;;;;;;;;;;;5081800;28;20155;-51
2023/06/14 21:13:25;;;;;;;;;;;;;;;;;;5082027;28;20043;-50
2023/06/14 21:15:51;;;;;;;;;;;;;;;;;;5082731;28;20012;-49
2023/06/14 21:18:17;;;;;;;;;;;;;;;;;;5086302;28;19920;-49
2023/06/14 21:20:43;;;;;;;;;;;;;;;;;;5085246;28;20007;-47
2023/06/14 21:23:10;;;;;;;;;;;;;;;;;;5088062;28;20440;-47
2023/06/14 21:25:36;;;;;;;;;;;;;;;;;;5087974;28;19912;-48
2023/06/14 21:28:02;;;;;;;;;;;;;;;;;;5087331;28;19918;-47
2023/06/14 21:30:29;;;;;;;;;;;;;;;;;;5087758;28;20295;-48
2023/06/14 21:32:55;;;;;;;;;;;;;;;;;;5087452;28;19960;-48
2023/06/14 21:35:22;;;;;;;;;;;;;;;;;;5087698;28;19912;-48
2023/06/14 21:37:48;;;;;;;;;;;;;;;;;;5086640;28;19936;-47
2023/06/14 21:40:14;;;;;;;;;;;;;;;;;;5086613;28;20261;-47
2023/06/14 21:42:40;;;;;;;;;;;;;;;;;;5087499;28;20064;-47
2023/06/14 21:45:09;;;;;;;;;;;;;;;;;;5087021;28;20001;-47
2023/06/14 21:47:35;;;;;;;;;;;;;;;;;;5086777;28;19920;-47
2023/06/14 21:50:02;;;;;;;;;;;;;;;;;;5086436;28;19912;-48
2023/06/14 21:52:28;;;;;;;;;;;;;;;;;;5087026;28;19962;-46
2023/06/14 21:54:57;;;;;;;;;;;;;;;;;;5086439;28;19940;-48
2023/06/14 21:57:24;;;;;;;;;;;;;;;;;;5086840;28;19908;-47